createdAt,value
2018-06-05T00:00:16.928Z,24.87
2018-06-05T00:02:46.154Z,24.37
2018-06-05T00:05:15.479Z,24.30
2018-06-05T00:07:44.771Z,23.20
2018-06-05T00:10:14.048Z,24.63
2018-06-05T00:12:44.291Z,23.53
2018-06-05T00:15:13.538Z,23.87
2018-06-05T00:17:42.776Z,23.33
2018-06-05T00:20:12.172Z,25.10
2018-06-05T00:22:41.522Z,25.37
2018-06-05T00:25:10.749Z,24.30
2018-06-05T00:27:39.957Z,25.60
2018-06-05T00:30:09.181Z,25.60
2018-06-05T00:32:38.668Z,25.50
2018-06-05T00:35:07.551Z,25.57
2018-06-05T00:37:36.699Z,25.17
2018-06-05T00:40:06.039Z,25.80
2018-06-05T00:42:35.393Z,24.63
2018-06-05T00:45:04.679Z,25.70
2018-06-05T00:47:33.913Z,24.40
2018-06-05T00:50:03.204Z,22.73
2018-06-05T00:52:32.537Z,26.57
2018-06-05T00:55:01.827Z,25.97
2018-06-05T00:57:31.149Z,25.17
2018-06-05T01:00:00.342Z,26.10
2018-06-05T01:02:29.656Z,24.07
2018-06-05T01:04:58.922Z,24.63
2018-06-05T01:07:28.238Z,24.63
2018-06-05T01:09:57.581Z,25.73
2018-06-05T01:12:26.874Z,25.10
2018-06-05T01:14:56.059Z,23.90
2018-06-05T01:17:25.260Z,25.23
2018-06-05T01:19:54.473Z,25.20
2018-06-05T01:22:23.778Z,25.17
2018-06-05T01:24:53.038Z,25.33
2018-06-05T01:27:22.299Z,26.10
2018-06-05T01:29:51.596Z,27.13
2018-06-05T01:32:20.908Z,25.67
2018-06-05T01:34:50.250Z,24.67
2018-06-05T01:37:19.507Z,25.10
2018-06-05T01:39:48.836Z,25.70
2018-06-05T01:42:18.065Z,26.63
2018-06-05T01:44:47.326Z,27.33
2018-06-05T01:47:16.677Z,25.77
2018-06-05T01:49:45.912Z,27.37
2018-06-05T01:52:15.154Z,26.73
2018-06-05T01:54:44.143Z,26.80
2018-06-05T01:57:13.324Z,25.93
2018-06-05T01:59:42.556Z,26.07
2018-06-05T02:02:11.804Z,27.20
2018-06-05T02:04:41.294Z,26.03
2018-06-05T02:07:10.509Z,25.43
2018-06-05T02:09:39.753Z,26.10
2018-06-05T02:12:09.098Z,26.20
2018-06-05T02:14:38.336Z,26.23
2018-06-05T02:17:07.567Z,28.30
2018-06-05T02:19:36.858Z,28.47
2018-06-05T02:22:06.188Z,27.93
2018-06-05T02:24:35.439Z,28.97
2018-06-05T02:27:05.014Z,28.20
2018-06-05T02:29:34.266Z,28.10
2018-06-05T02:32:03.855Z,27.97
2018-06-05T02:34:33.224Z,29.70
2018-06-05T02:37:02.549Z,28.10
2018-06-05T02:39:31.779Z,29.97
2018-06-05T02:42:01.606Z,28.63
2018-06-05T02:44:30.913Z,30.50
2018-06-05T02:47:00.299Z,28.73
2018-06-05T02:49:29.591Z,28.50
2018-06-05T02:51:58.806Z,29.80
2018-06-05T02:54:28.039Z,27.97
2018-06-05T02:56:57.245Z,28.40
2018-06-05T02:59:26.574Z,31.20
2018-06-05T03:01:55.500Z,30.43
2018-06-05T03:04:24.321Z,28.00
2018-06-05T03:06:53.472Z,29.30
2018-06-05T03:09:22.863Z,31.13
2018-06-05T03:11:52.736Z,31.50
2018-06-05T03:14:21.940Z,31.77
2018-06-05T03:16:51.143Z,30.87
2018-06-05T03:19:21.141Z,29.93
2018-06-05T03:21:50.423Z,31.80
2018-06-05T03:24:19.670Z,31.70
2018-06-05T03:26:48.925Z,34.17
2018-06-05T03:29:18.109Z,32.20
2018-06-05T03:31:47.362Z,33.43
2018-06-05T03:34:16.656Z,34.60
2018-06-05T03:36:45.889Z,37.40
2018-06-05T03:39:15.125Z,36.57
2018-06-05T03:41:44.648Z,37.60
2018-06-05T03:44:13.955Z,39.23
2018-06-05T03:46:43.204Z,37.13
2018-06-05T03:49:12.420Z,36.57
2018-06-05T03:51:41.840Z,37.37
2018-06-05T03:54:11.056Z,40.63
2018-06-05T03:56:40.301Z,40.97
2018-06-05T03:59:09.584Z,42.30
2018-06-05T04:01:38.477Z,44.60
2018-06-05T04:04:07.616Z,45.97
2018-06-05T04:06:36.903Z,46.53
2018-06-05T04:09:06.695Z,42.23
2018-06-05T04:11:36.036Z,43.27
2018-06-05T04:14:05.354Z,42.97
2018-06-05T04:16:34.594Z,39.40
2018-06-05T04:19:03.871Z,42.20
2018-06-05T04:21:33.159Z,39.40
2018-06-05T04:24:02.403Z,38.90
2018-06-05T04:26:31.342Z,36.17
2018-06-05T04:29:00.416Z,40.37
2018-06-05T04:31:29.832Z,38.10
2018-06-05T04:33:59.077Z,38.17
2018-06-05T04:36:28.365Z,36.40
2018-06-05T04:38:57.600Z,36.53
2018-06-05T04:41:26.832Z,38.60
2018-06-05T04:43:56.274Z,36.67
2018-06-05T04:46:25.573Z,35.57
2018-06-05T04:48:54.813Z,39.03
2018-06-05T04:51:24.074Z,36.47
2018-06-05T04:53:53.314Z,39.77
2018-06-05T04:56:22.525Z,36.83
2018-06-05T04:58:51.772Z,39.30
2018-06-05T05:01:21.012Z,38.40
2018-06-05T05:03:50.224Z,40.80
2018-06-05T05:06:19.486Z,38.27
2018-06-05T05:08:48.732Z,38.00
2018-06-05T05:11:17.772Z,39.37
2018-06-05T05:13:46.723Z,40.63
2018-06-05T05:16:15.838Z,37.73
2018-06-05T05:18:45.229Z,38.53
2018-06-05T05:21:14.497Z,38.23
2018-06-05T05:23:43.917Z,35.60
2018-06-05T05:26:13.155Z,35.30
2018-06-05T05:28:43.388Z,36.67
2018-06-05T05:31:12.655Z,36.67
2018-06-05T05:33:42.970Z,35.37
2018-06-05T05:36:12.276Z,34.77
2018-06-05T05:38:41.503Z,34.50
2018-06-05T05:41:10.768Z,34.70
2018-06-05T05:43:40.136Z,34.83
2018-06-05T05:46:09.499Z,32.73
2018-06-05T05:48:39.523Z,34.33
2018-06-05T05:51:13.206Z,33.20
2018-06-05T05:53:42.569Z,33.97
2018-06-05T05:56:11.788Z,34.53
2018-06-05T05:58:41.184Z,34.00
2018-06-05T06:01:10.594Z,37.07
2018-06-05T06:03:39.896Z,37.87
2018-06-05T06:06:09.145Z,35.53
2018-06-05T06:08:38.408Z,35.93
2018-06-05T06:11:07.673Z,38.67
2018-06-05T06:13:37.515Z,38.10
2018-06-05T06:16:06.774Z,36.77
2018-06-05T06:18:36.012Z,37.37
2018-06-05T06:21:05.590Z,38.13
2018-06-05T06:23:34.871Z,35.80
2018-06-05T06:26:04.530Z,36.30
2018-06-05T06:28:33.768Z,38.30
2018-06-05T06:31:03.963Z,36.87
2018-06-05T06:33:33.165Z,38.50
2018-06-05T06:36:02.385Z,40.57
2018-06-05T06:38:31.654Z,39.83
2018-06-05T06:41:00.868Z,39.57
2018-06-05T06:43:30.389Z,39.33
2018-06-05T06:45:59.596Z,37.70
2018-06-05T06:48:29.105Z,37.70
2018-06-05T06:50:58.360Z,37.43
2018-06-05T06:53:27.761Z,39.03
2018-06-05T06:55:57.020Z,38.50
2018-06-05T06:58:25.968Z,37.37
2018-06-05T07:00:55.068Z,37.00
2018-06-05T07:03:24.399Z,35.73
2018-06-05T07:05:54.412Z,38.37
2018-06-05T07:08:23.640Z,36.63
2018-06-05T07:10:52.945Z,38.23
2018-06-05T07:13:22.178Z,37.23
2018-06-05T07:17:17.225Z,34.30
2018-06-05T07:19:46.500Z,36.53
2018-06-05T07:22:15.978Z,37.13
2018-06-05T07:24:45.204Z,34.10
2018-06-05T07:27:14.137Z,37.60
2018-06-05T07:29:43.280Z,39.87
2018-06-05T07:32:12.496Z,38.20
2018-06-05T07:34:41.696Z,35.87
2018-06-05T07:37:11.524Z,37.60
2018-06-05T07:39:40.739Z,36.50
2018-06-05T07:42:09.965Z,38.40
2018-06-05T07:44:39.295Z,36.33
2018-06-05T07:47:08.525Z,36.30
2018-06-05T07:49:37.773Z,37.57
2018-06-05T07:52:06.971Z,40.50
2018-06-05T07:54:36.239Z,43.83
2018-06-05T07:57:05.499Z,39.03
2018-06-05T07:59:34.800Z,37.17
2018-06-05T08:02:04.026Z,35.47
2018-06-05T08:04:33.220Z,35.37
2018-06-05T08:07:02.478Z,37.17
2018-06-05T08:09:32.979Z,38.43
2018-06-05T08:12:02.747Z,39.83
2018-06-05T08:14:33.291Z,41.17
2018-06-05T08:17:02.688Z,40.43
2018-06-05T08:19:32.473Z,40.07
2018-06-05T08:22:02.091Z,38.30
2018-06-05T08:24:31.570Z,40.80
2018-06-05T08:27:02.160Z,39.47
2018-06-05T08:29:31.712Z,42.47
2018-06-05T08:32:02.173Z,45.70
2018-06-05T08:34:31.670Z,45.27
2018-06-05T08:37:01.868Z,39.97
2018-06-05T08:39:31.243Z,40.03
2018-06-05T08:42:00.460Z,46.07
2018-06-05T08:44:29.726Z,44.67
2018-06-05T08:46:58.928Z,39.70
2018-06-05T08:49:28.275Z,41.27
2018-06-05T08:51:57.583Z,46.70
2018-06-05T08:54:26.960Z,44.00
2018-06-05T08:56:56.222Z,46.23
2018-06-05T08:59:25.492Z,44.43
2018-06-05T09:01:54.760Z,44.37
2018-06-05T09:04:24.067Z,40.27
2018-06-05T09:06:53.400Z,45.90
2018-06-05T09:09:22.635Z,43.93
2018-06-05T09:11:51.913Z,41.90
2018-06-05T09:14:21.595Z,43.83
2018-06-05T09:16:50.924Z,44.70
2018-06-05T09:19:20.264Z,46.73
2018-06-05T09:21:49.552Z,47.07
2018-06-05T09:24:18.868Z,47.80
2018-06-05T09:26:47.830Z,50.93
2018-06-05T09:29:16.918Z,50.77
2018-06-05T09:31:46.205Z,45.93
2018-06-05T09:34:15.427Z,46.77
2018-06-05T09:36:44.687Z,47.20
2018-06-05T09:39:14.016Z,45.57
2018-06-05T09:41:43.294Z,48.13
2018-06-05T09:44:12.655Z,47.40
2018-06-05T09:46:41.924Z,46.63
2018-06-05T09:49:11.145Z,46.70
2018-06-05T09:51:40.399Z,48.03
2018-06-05T09:54:09.612Z,48.07
2018-06-05T09:56:38.936Z,47.20
2018-06-05T09:59:08.285Z,43.90
2018-06-05T10:01:37.674Z,45.73
2018-06-05T10:04:07.038Z,41.90
2018-06-05T10:06:36.327Z,40.40
2018-06-05T10:09:06.979Z,40.00
2018-06-05T10:11:36.275Z,39.00
2018-06-05T10:14:05.639Z,37.93
2018-06-05T10:16:35.058Z,37.27
2018-06-05T10:19:04.382Z,39.57
2018-06-05T10:21:33.702Z,38.10
2018-06-05T10:24:03.680Z,35.60
2018-06-05T10:26:32.999Z,39.40
2018-06-05T10:29:02.483Z,37.67
2018-06-05T10:31:31.739Z,39.17
2018-06-05T10:34:00.968Z,40.00
2018-06-05T10:36:30.272Z,39.73
2018-06-05T10:38:59.696Z,40.13
2018-06-05T10:41:28.972Z,36.87
2018-06-05T10:43:58.273Z,35.73
2018-06-05T10:46:27.883Z,35.73
2018-06-05T10:48:57.245Z,34.93
2018-06-05T10:51:26.520Z,36.73
2018-06-05T10:53:55.838Z,37.50
2018-06-05T10:56:25.094Z,40.00
2018-06-05T10:58:54.311Z,34.97
2018-06-05T11:01:23.671Z,42.60
2018-06-05T11:03:52.911Z,35.40
2018-06-05T11:06:22.325Z,37.50
2018-06-05T11:08:51.707Z,33.40
2018-06-05T11:11:20.712Z,34.10
2018-06-05T11:13:49.897Z,34.77
2018-06-05T11:16:19.145Z,34.80
2018-06-05T11:18:48.468Z,34.70
2018-06-05T11:21:17.752Z,34.00
2018-06-05T11:23:47.130Z,33.67
2018-06-05T11:26:16.520Z,33.73
2018-06-05T11:28:45.761Z,34.70
2018-06-05T11:31:15.484Z,37.17
2018-06-05T11:33:44.717Z,35.90
2018-06-05T11:36:14.572Z,37.23
2018-06-05T11:38:44.307Z,39.03
2018-06-05T11:41:15.135Z,35.57
2018-06-05T11:43:45.467Z,37.77
2018-06-05T11:46:15.265Z,38.13
2018-06-05T11:48:46.160Z,39.60
2018-06-05T11:51:15.577Z,34.77
2018-06-05T11:53:44.885Z,38.67
2018-06-05T11:56:13.801Z,39.50
2018-06-05T11:58:42.959Z,38.10
2018-06-05T12:01:12.371Z,38.77
2018-06-05T12:03:41.619Z,37.40
2018-06-05T12:06:10.900Z,38.90
2018-06-05T12:08:41.226Z,39.57
2018-06-05T12:11:10.565Z,40.43
2018-06-05T12:13:39.833Z,39.90
2018-06-05T12:16:09.122Z,42.50
2018-06-05T12:18:38.457Z,42.07
2018-06-05T12:21:11.861Z,40.33
2018-06-05T12:23:41.191Z,42.53
2018-06-05T12:26:10.489Z,42.53
2018-06-05T12:28:40.265Z,41.43
2018-06-05T12:31:09.576Z,41.00
2018-06-05T12:33:40.153Z,37.80
2018-06-05T12:36:09.707Z,37.30
2018-06-05T12:38:39.191Z,33.97
2018-06-05T12:41:08.749Z,37.07
2018-06-05T12:43:38.862Z,38.07
2018-06-05T12:46:08.326Z,37.90
2018-06-05T12:48:37.604Z,37.90
2018-06-05T12:51:06.901Z,38.30
2018-06-05T12:53:37.603Z,46.00
2018-06-05T12:56:06.962Z,39.50
2018-06-05T12:58:37.249Z,40.30
2018-06-05T13:01:07.942Z,38.30
2018-06-05T13:03:37.540Z,40.30
2018-06-05T13:06:06.994Z,39.90
2018-06-05T13:08:36.307Z,37.93
2018-06-05T13:11:05.647Z,38.17
2018-06-05T13:13:34.986Z,38.43
2018-06-05T13:16:04.343Z,36.47
2018-06-05T13:18:33.622Z,35.93
2018-06-05T13:21:02.939Z,33.00
2018-06-05T13:23:32.288Z,30.90
2018-06-05T13:26:01.673Z,33.03
2018-06-05T13:28:31.059Z,28.40
2018-06-05T13:31:00.472Z,28.10
2018-06-05T13:33:29.746Z,27.77
2018-06-05T13:35:59.017Z,29.00
2018-06-05T13:38:28.091Z,30.03
2018-06-05T13:40:58.020Z,27.30
2018-06-05T13:43:27.212Z,28.13
2018-06-05T13:45:56.459Z,26.80
2018-06-05T13:48:25.809Z,27.80
2018-06-05T13:50:55.195Z,28.37
2018-06-05T13:53:24.548Z,29.50
2018-06-05T13:55:54.503Z,33.97
2018-06-05T13:58:24.007Z,33.10
2018-06-05T14:00:53.491Z,31.73
2018-06-05T14:03:22.691Z,30.83
2018-06-05T14:05:52.014Z,29.80
2018-06-05T14:08:21.308Z,29.90
2018-06-05T14:54:33.831Z,40.70
2018-06-05T14:57:03.040Z,41.03
2018-06-05T14:59:31.964Z,41.70
2018-06-05T15:02:00.796Z,44.30
2018-06-05T15:04:29.920Z,44.30
2018-06-05T15:06:58.887Z,46.40
2018-06-05T15:09:28.197Z,46.53
2018-06-05T15:11:58.437Z,45.80
2018-06-05T15:14:27.751Z,45.00
2018-06-05T15:16:57.160Z,43.63
2018-06-05T15:19:26.544Z,41.80
2018-06-05T15:21:55.853Z,42.00
2018-06-05T15:24:26.160Z,35.90
2018-06-05T15:26:55.431Z,38.17
2018-06-05T15:29:24.805Z,40.73
2018-06-05T15:31:54.274Z,41.70
2018-06-05T15:34:23.528Z,39.67
2018-06-05T15:36:52.911Z,34.70
2018-06-05T15:39:22.221Z,34.57
2018-06-05T15:41:51.517Z,34.60
2018-06-05T15:44:20.780Z,33.47
2018-06-05T15:46:50.195Z,33.40
2018-06-05T15:49:19.437Z,33.63
2018-06-05T15:51:48.692Z,33.30
2018-06-05T15:54:18.058Z,32.13
2018-06-05T15:56:48.065Z,33.10
2018-06-05T15:59:17.183Z,30.03
2018-06-05T16:01:46.419Z,29.83
2018-06-05T16:04:15.836Z,31.73
2018-06-05T16:06:45.129Z,30.93
2018-06-05T16:09:14.504Z,30.17
2018-06-05T16:11:43.470Z,30.27
2018-06-05T16:14:12.636Z,30.50
2018-06-05T16:16:42.413Z,28.13
2018-06-05T16:19:11.654Z,30.97
2018-06-05T16:21:40.888Z,33.73
2018-06-05T16:24:10.221Z,31.27
2018-06-05T16:26:39.576Z,32.40
2018-06-05T16:29:08.794Z,31.63
2018-06-05T16:31:38.596Z,31.47
2018-06-05T16:34:07.958Z,31.50
2018-06-05T16:36:37.200Z,30.87
2018-06-05T16:39:08.300Z,31.57
2018-06-05T16:41:37.586Z,30.63
2018-06-05T16:44:07.023Z,31.17
2018-06-05T16:46:36.804Z,34.03
2018-06-05T16:49:06.170Z,31.10
2018-06-05T16:51:35.418Z,30.13
2018-06-05T16:54:04.839Z,29.60
2018-06-05T16:56:34.161Z,29.00
2018-06-05T16:59:03.590Z,30.13
2018-06-05T17:01:32.869Z,31.07
2018-06-05T17:04:02.200Z,28.53
2018-06-05T17:06:31.530Z,29.50
2018-06-05T17:09:00.875Z,28.70
2018-06-05T17:11:30.184Z,31.93
2018-06-05T17:13:59.179Z,30.53
2018-06-05T17:16:28.477Z,30.70
2018-06-05T17:18:58.852Z,29.20
2018-06-05T17:21:28.756Z,30.10
2018-06-05T17:23:58.307Z,27.93
2018-06-05T17:26:27.588Z,28.03
2018-06-05T17:28:57.573Z,30.50
2018-06-05T17:31:26.547Z,30.00
2018-06-05T17:33:55.735Z,28.80
2018-06-05T17:36:25.106Z,28.40
2018-06-05T17:38:54.361Z,30.43
2018-06-05T17:42:27.144Z,28.80
2018-06-05T17:44:56.382Z,28.80
2018-06-05T17:47:25.661Z,29.93
2018-06-05T17:49:54.928Z,28.63
2018-06-05T17:52:23.876Z,28.93
2018-06-05T17:54:52.971Z,27.60
2018-06-05T17:57:22.406Z,28.63
2018-06-05T17:59:51.689Z,30.67
2018-06-05T18:02:21.045Z,31.83
2018-06-05T18:04:50.452Z,29.30
2018-06-05T18:07:19.918Z,30.20
2018-06-05T18:09:49.255Z,27.63
2018-06-05T18:12:18.224Z,28.37
2018-06-05T18:14:47.398Z,30.67
2018-06-05T18:17:16.663Z,32.43
2018-06-05T18:19:46.014Z,31.20
2018-06-05T18:22:15.247Z,32.00
2018-06-05T18:24:44.564Z,30.77
2018-06-05T18:27:13.859Z,31.43
2018-06-05T18:29:43.228Z,30.67
2018-06-05T18:32:12.522Z,29.13
2018-06-05T18:34:42.461Z,32.77
2018-06-05T18:37:11.914Z,31.67
2018-06-05T18:39:41.669Z,33.03
2018-06-05T18:42:11.776Z,30.90
2018-06-05T18:44:42.375Z,31.57
2018-06-05T18:47:12.497Z,31.40
2018-06-05T18:49:41.626Z,31.80
2018-06-05T18:52:10.780Z,31.63
2018-06-05T18:54:40.059Z,32.93
2018-06-05T18:57:09.273Z,32.13
2018-06-05T18:59:38.644Z,30.30
2018-06-05T19:02:07.968Z,30.57
2018-06-05T19:04:37.320Z,31.00
2018-06-05T19:07:06.653Z,31.77
2018-06-05T19:09:36.029Z,31.67
2018-06-05T19:12:05.010Z,31.27
2018-06-05T19:14:34.343Z,31.97
2018-06-05T19:17:04.680Z,31.00
2018-06-05T19:19:34.006Z,30.77
2018-06-05T19:22:03.280Z,31.47
2018-06-05T19:24:32.709Z,31.40
2018-06-05T19:27:01.994Z,32.83
2018-06-05T19:29:31.253Z,30.60
2018-06-05T19:32:00.467Z,30.37
2018-06-05T19:34:29.732Z,32.70
2018-06-05T19:36:59.005Z,29.70
2018-06-05T19:39:28.350Z,30.30
2018-06-05T19:41:57.592Z,29.50
2018-06-05T19:44:26.834Z,29.53
2018-06-05T19:46:56.624Z,29.07
2018-06-05T19:49:25.943Z,29.87
2018-06-05T19:51:55.228Z,29.80
2018-06-05T19:54:24.360Z,31.60
2018-06-05T19:56:53.541Z,29.20
2018-06-05T19:59:22.830Z,30.77
2018-06-05T20:01:52.660Z,30.67
2018-06-05T20:04:22.529Z,28.87
2018-06-05T20:06:52.736Z,28.90
2018-06-05T20:09:22.076Z,29.73
2018-06-05T20:11:51.357Z,29.73
2018-06-05T20:14:20.651Z,32.83
2018-06-05T20:16:50.041Z,33.07
2018-06-05T20:19:19.315Z,29.63
2018-06-05T20:21:49.288Z,30.73
2018-06-05T20:24:18.589Z,31.23
2018-06-05T20:26:48.489Z,30.00
2018-06-05T20:29:17.986Z,31.47
2018-06-05T20:31:47.257Z,30.30
2018-06-05T20:34:16.518Z,30.70
2018-06-05T20:36:45.885Z,30.07
2018-06-05T20:39:15.156Z,28.87
2018-06-05T20:41:44.509Z,28.93
2018-06-05T20:44:13.926Z,29.00
2018-06-05T20:46:43.207Z,30.60
2018-06-05T20:49:13.017Z,29.63
2018-06-05T20:51:42.313Z,28.60
2018-06-05T20:54:17.195Z,29.40
2018-06-05T20:56:46.913Z,27.20
2018-06-05T20:59:16.251Z,28.90
2018-06-05T21:01:45.626Z,27.00
2018-06-05T21:04:15.009Z,28.10
2018-06-05T21:06:44.339Z,27.23
2018-06-05T21:09:13.738Z,26.03
2018-06-05T21:11:43.135Z,26.83
2018-06-05T21:14:12.605Z,27.90
2018-06-05T21:16:41.636Z,25.63
2018-06-05T21:19:10.988Z,28.43
2018-06-05T21:21:40.295Z,28.20
2018-06-05T21:24:10.394Z,26.83
2018-06-05T21:26:39.848Z,26.73
2018-06-05T21:29:09.296Z,27.47
2018-06-05T21:31:38.631Z,25.87
2018-06-05T21:34:08.098Z,25.47
2018-06-05T21:36:37.342Z,28.53
2018-06-05T21:39:09.491Z,28.60
2018-06-05T21:41:38.849Z,27.67
2018-06-05T21:44:08.163Z,26.23
2018-06-05T21:46:37.468Z,29.20
2018-06-05T21:49:06.802Z,28.33
2018-06-05T21:51:36.773Z,26.83
2018-06-05T21:54:06.561Z,26.33
2018-06-05T21:56:35.838Z,27.73
2018-06-05T21:59:05.324Z,26.70
2018-06-05T22:01:34.529Z,27.90
2018-06-05T22:04:03.837Z,27.07
2018-06-05T22:06:33.101Z,26.37
2018-06-05T22:09:03.168Z,26.80
2018-06-05T22:11:32.391Z,28.77
2018-06-05T22:14:01.686Z,26.80
2018-06-05T22:16:30.972Z,27.17
2018-06-05T22:19:00.418Z,27.40
2018-06-05T22:21:29.664Z,29.07
2018-06-05T22:23:59.028Z,28.20
2018-06-05T22:26:28.317Z,28.23
2018-06-05T22:28:57.683Z,27.60
2018-06-05T22:31:27.043Z,29.03
2018-06-05T22:33:56.348Z,29.73
2018-06-05T22:36:25.669Z,26.37
2018-06-05T22:38:55.729Z,27.07
2018-06-05T22:41:24.992Z,25.70
2018-06-05T22:43:54.831Z,26.27
2018-06-05T22:46:24.083Z,25.87
2018-06-05T22:48:53.370Z,26.40
2018-06-05T22:51:22.766Z,26.77
2018-06-05T22:53:52.269Z,29.00
2018-06-05T22:56:21.532Z,27.73
2018-06-05T22:58:50.826Z,29.50
2018-06-05T23:01:20.333Z,26.20
2018-06-05T23:03:49.448Z,26.10
2018-06-05T23:06:18.717Z,26.10
2018-06-05T23:08:48.036Z,28.30
2018-06-05T23:11:17.371Z,30.10
2018-06-05T23:13:46.596Z,29.90
2018-06-05T23:16:15.881Z,27.80
2018-06-05T23:18:45.168Z,27.83
2018-06-05T23:21:14.406Z,29.33
2018-06-05T23:23:43.649Z,29.30
2018-06-05T23:26:12.891Z,24.97
2018-06-05T23:28:42.336Z,25.60
2018-06-05T23:31:11.570Z,27.83
2018-06-05T23:33:40.792Z,28.57
2018-06-05T23:36:10.069Z,26.80
2018-06-05T23:38:39.338Z,27.40
2018-06-05T23:41:08.699Z,26.97
2018-06-05T23:43:37.979Z,28.10
2018-06-05T23:46:07.230Z,27.80
2018-06-05T23:48:36.512Z,27.97
2018-06-05T23:51:05.836Z,28.67
2018-06-05T23:53:35.058Z,28.67
2018-06-05T23:56:04.305Z,27.10
2018-06-05T23:58:33.591Z,32.23
